createdAt,value
2022-09-15T00:01:16.933Z,11.00
2022-09-15T00:03:46.347Z,11.50
2022-09-15T00:06:14.944Z,11.70
2022-09-15T00:08:43.114Z,11.50
2022-09-15T00:11:20.763Z,10.65
2022-09-15T00:13:49.069Z,10.77
2022-09-15T00:16:19.083Z,10.27
2022-09-15T00:21:18.413Z,10.05
2022-09-15T00:23:48.048Z,14.15
2022-09-15T00:26:20.499Z,9.00
2022-09-15T00:28:49.763Z,11.80
2022-09-15T00:32:07.710Z,9.73
2022-09-15T00:34:35.538Z,12.73
2022-09-15T00:37:03.285Z,11.60
2022-09-15T00:39:30.797Z,13.82
2022-09-15T00:41:58.473Z,14.32
2022-09-15T00:44:44.633Z,8.75
2022-09-15T00:47:19.564Z,9.20
2022-09-15T00:49:50.246Z,12.35
2022-09-15T00:52:34.282Z,10.50
2022-09-15T00:55:04.520Z,11.52
2022-09-15T00:57:39.681Z,14.15
2022-09-15T01:00:11.979Z,10.63
2022-09-15T01:02:43.403Z,12.65
2022-09-15T01:05:21.490Z,9.35
2022-09-15T01:08:05.421Z,12.38
2022-09-15T01:10:38.662Z,12.05
2022-09-15T01:13:13.379Z,10.27
2022-09-15T01:15:41.814Z,13.23
2022-09-15T01:18:25.384Z,12.15
2022-09-15T01:21:00.170Z,10.98
2022-09-15T01:23:45.063Z,10.93
2022-09-15T01:26:19.509Z,12.70
2022-09-15T01:29:06.573Z,15.82
2022-09-15T01:32:21.357Z,11.93
2022-09-15T01:35:02.688Z,13.02
2022-09-15T01:37:33.125Z,18.23
2022-09-15T01:40:05.991Z,16.45
2022-09-15T01:42:36.346Z,10.80
2022-09-15T01:45:11.582Z,15.68
2022-09-15T01:47:41.097Z,14.18
2022-09-15T01:50:16.984Z,13.70
2022-09-15T01:52:49.169Z,12.48
2022-09-15T01:55:23.148Z,17.17
2022-09-15T01:57:51.439Z,18.63
2022-09-15T02:00:22.269Z,16.45
2022-09-15T02:03:01.262Z,16.10
2022-09-15T02:05:42.905Z,12.80
2022-09-15T02:08:27.632Z,14.23
2022-09-15T02:11:13.386Z,16.50
2022-09-15T02:13:46.539Z,16.52
2022-09-15T02:16:20.180Z,18.95
2022-09-15T02:19:19.257Z,14.50
2022-09-15T02:21:54.749Z,15.23
2022-09-15T02:24:28.054Z,23.38
2022-09-15T02:26:56.858Z,19.23
2022-09-15T02:29:29.025Z,12.63
2022-09-15T02:32:07.410Z,16.98
2022-09-15T02:34:38.593Z,19.95
2022-09-15T02:39:43.880Z,18.45
2022-09-15T02:42:13.682Z,19.17
2022-09-15T02:44:42.566Z,20.75
2022-09-15T02:47:14.073Z,17.85
2022-09-15T02:49:42.777Z,14.60
2022-09-15T02:52:14.134Z,13.57
2022-09-15T02:54:42.761Z,16.08
2022-09-15T02:57:17.315Z,15.25
2022-09-15T03:00:03.900Z,18.48
2022-09-15T03:02:31.729Z,16.17
2022-09-15T03:05:00.873Z,19.20
2022-09-15T03:07:29.264Z,22.13
2022-09-15T03:09:59.769Z,15.40
2022-09-15T03:12:32.190Z,15.48
2022-09-15T03:15:00.818Z,16.58
2022-09-15T03:17:36.323Z,17.30
2022-09-15T03:20:08.262Z,18.10
2022-09-15T03:22:39.186Z,17.65
2022-09-15T03:25:09.152Z,17.38
2022-09-15T03:27:38.413Z,16.80
2022-09-15T03:30:08.198Z,17.77
2022-09-15T03:32:37.941Z,17.42
2022-09-15T03:35:09.458Z,18.58
2022-09-15T03:37:38.014Z,14.95
2022-09-15T03:40:06.872Z,18.05
2022-09-15T03:42:36.158Z,17.83
2022-09-15T03:45:04.717Z,20.83
2022-09-15T03:47:33.550Z,19.30
2022-09-15T03:50:02.144Z,18.08
2022-09-15T03:52:34.014Z,17.58
2022-09-15T03:55:03.631Z,17.17
2022-09-15T03:57:34.082Z,14.57
2022-09-15T04:00:02.994Z,16.88
2022-09-15T04:02:33.308Z,15.00
2022-09-15T04:05:03.276Z,17.98
2022-09-15T04:07:31.802Z,18.48
2022-09-15T04:10:01.158Z,19.55
2022-09-15T04:12:30.161Z,16.35
2022-09-15T04:14:58.246Z,16.45
2022-09-15T04:17:26.465Z,18.23
2022-09-15T04:19:55.013Z,18.67
2022-09-15T04:22:24.139Z,14.95
2022-09-15T04:24:52.471Z,20.40
2022-09-15T04:27:20.692Z,18.13
2022-09-15T04:29:52.011Z,17.40
2022-09-15T04:32:22.215Z,16.42
2022-09-15T04:34:50.685Z,18.83
2022-09-15T04:37:19.023Z,17.63
2022-09-15T04:39:46.770Z,20.60
2022-09-15T04:42:16.124Z,24.60
2022-09-15T04:44:43.813Z,24.83
2022-09-15T04:47:11.504Z,24.92
2022-09-15T04:49:39.934Z,24.55
2022-09-15T04:52:09.732Z,24.83
2022-09-15T04:54:38.775Z,26.67
2022-09-15T04:57:07.201Z,31.63
2022-09-15T04:59:35.767Z,25.92
2022-09-15T05:02:04.261Z,25.02
2022-09-15T05:04:32.391Z,33.22
2022-09-15T05:07:00.125Z,28.95
2022-09-15T05:09:30.137Z,29.27
2022-09-15T05:11:58.390Z,27.30
2022-09-15T05:14:26.074Z,25.75
2022-09-15T05:16:54.149Z,22.73
2022-09-15T05:19:22.052Z,21.63
2022-09-15T05:21:50.834Z,21.95
2022-09-15T05:24:18.627Z,18.33
2022-09-15T05:26:46.979Z,17.55
2022-09-15T05:29:15.734Z,15.13
2022-09-15T05:31:43.721Z,16.27
2022-09-15T05:34:11.494Z,19.20
2022-09-15T05:36:39.875Z,15.43
2022-09-15T05:39:08.412Z,15.02
2022-09-15T05:41:35.970Z,14.02
2022-09-15T05:44:03.650Z,10.35
2022-09-15T05:46:31.786Z,14.43
2022-09-15T05:49:00.382Z,13.32
2022-09-15T05:51:28.020Z,14.90
2022-09-15T05:53:56.329Z,11.52
2022-09-15T05:56:24.044Z,14.10
2022-09-15T05:58:52.552Z,10.63
2022-09-15T06:01:23.378Z,10.63
2022-09-15T06:03:51.603Z,14.98
2022-09-15T06:06:20.467Z,10.77
2022-09-15T06:08:57.482Z,10.18
2022-09-15T06:11:30.961Z,11.52
2022-09-15T06:14:03.509Z,15.77
2022-09-15T06:16:36.238Z,8.95
2022-09-15T06:19:04.462Z,9.25
2022-09-15T06:21:34.408Z,15.73
2022-09-15T06:24:05.008Z,10.52
2022-09-15T06:26:33.362Z,9.38
2022-09-15T06:29:03.413Z,8.73
2022-09-15T06:31:33.165Z,11.10
2022-09-15T06:34:01.469Z,12.07
2022-09-15T06:36:31.036Z,10.70
2022-09-15T06:38:59.306Z,16.08
2022-09-15T06:41:47.085Z,8.30
2022-09-15T06:44:20.748Z,12.93
2022-09-15T06:46:49.466Z,10.13
2022-09-15T06:49:17.722Z,11.88
2022-09-15T06:51:47.125Z,10.45
2022-09-15T06:54:21.569Z,10.10
2022-09-15T06:56:51.956Z,8.45
2022-09-15T06:59:20.200Z,8.90
2022-09-15T07:01:48.186Z,12.10
2022-09-15T07:04:15.782Z,10.85
2022-09-15T07:06:43.393Z,6.80
2022-09-15T07:09:12.025Z,9.93
2022-09-15T07:11:40.314Z,7.03
2022-09-15T07:14:08.013Z,9.15
2022-09-15T07:16:36.265Z,7.93
2022-09-15T07:19:06.011Z,6.00
2022-09-15T07:21:37.919Z,4.97
2022-09-15T07:24:07.538Z,10.80
2022-09-15T07:26:35.741Z,8.02
2022-09-15T07:29:06.796Z,10.65
2022-09-15T07:31:36.478Z,7.93
2022-09-15T07:34:05.125Z,6.70
2022-09-15T07:36:32.909Z,6.22
2022-09-15T07:39:00.576Z,7.35
2022-09-15T07:41:30.265Z,10.80
2022-09-15T07:43:59.734Z,5.57
2022-09-15T07:46:30.436Z,10.70
2022-09-15T07:48:58.265Z,5.85
2022-09-15T07:51:26.814Z,8.35
2022-09-15T07:53:54.902Z,9.63
2022-09-15T07:56:24.569Z,6.53
2022-09-15T07:58:52.193Z,6.45
2022-09-15T08:01:20.761Z,6.78
2022-09-15T08:03:50.819Z,8.07
2022-09-15T08:08:49.659Z,10.00
2022-09-15T08:11:19.968Z,5.70
2022-09-15T08:13:49.793Z,8.63
2022-09-15T08:16:20.792Z,8.52
2022-09-15T08:18:48.767Z,14.32
2022-09-15T08:21:20.505Z,12.10
2022-09-15T08:23:53.232Z,8.77
2022-09-15T08:26:20.961Z,5.13
2022-09-15T08:28:49.318Z,8.30
2022-09-15T08:31:18.167Z,11.73
2022-09-15T08:33:51.760Z,11.43
2022-09-15T08:36:19.869Z,8.43
2022-09-15T08:38:48.081Z,7.22
2022-09-15T08:41:24.755Z,8.52
2022-09-15T08:43:59.585Z,8.13
2022-09-15T08:46:39.574Z,8.55
2022-09-15T08:49:27.011Z,10.98
2022-09-15T08:52:10.886Z,9.60
2022-09-15T08:54:39.761Z,6.70
2022-09-15T08:57:15.009Z,8.73
2022-09-15T08:59:43.542Z,9.45
2022-09-15T09:02:32.544Z,7.05
2022-09-15T09:05:30.461Z,10.00
2022-09-15T09:08:17.080Z,8.70
2022-09-15T09:10:59.198Z,9.95
2022-09-15T09:14:03.713Z,10.05
2022-09-15T09:17:10.261Z,11.48
2022-09-15T09:19:55.870Z,6.65
2022-09-15T09:22:28.483Z,8.13
2022-09-15T09:25:00.117Z,8.82
2022-09-15T09:27:37.195Z,8.15
2022-09-15T09:30:16.865Z,7.45
2022-09-15T09:33:06.382Z,8.85
2022-09-15T09:38:02.728Z,12.43
2022-09-15T09:40:33.931Z,7.78
2022-09-15T09:43:02.157Z,10.63
2022-09-15T09:45:29.548Z,6.95
2022-09-15T09:48:21.338Z,8.55
2022-09-15T09:50:50.668Z,8.75
2022-09-15T09:53:18.109Z,12.85
2022-09-15T09:55:48.474Z,8.70
2022-09-15T09:58:25.515Z,9.75
2022-09-15T10:00:53.692Z,8.23
2022-09-15T10:03:30.601Z,10.95
2022-09-15T10:06:29.565Z,6.43
2022-09-15T10:09:14.128Z,8.07
2022-09-15T10:11:42.450Z,11.20
2022-09-15T10:14:30.546Z,8.27
2022-09-15T10:17:22.922Z,10.85
2022-09-15T10:19:56.102Z,11.52
2022-09-15T10:22:32.928Z,11.13
2022-09-15T10:25:02.270Z,13.38
2022-09-15T10:27:36.032Z,8.13
2022-09-15T10:30:13.568Z,9.20
2022-09-15T10:32:42.640Z,5.97
2022-09-15T10:35:15.873Z,12.40
2022-09-15T10:37:59.217Z,4.70
2022-09-15T10:40:46.186Z,7.13
2022-09-15T10:43:22.679Z,8.88
2022-09-15T10:48:50.618Z,6.78
2022-09-15T10:51:57.194Z,8.55
2022-09-15T10:54:45.749Z,6.55
2022-09-15T10:57:41.276Z,9.60
2022-09-15T11:00:24.441Z,8.85
2022-09-15T11:03:27.467Z,7.53
2022-09-15T11:06:07.372Z,8.98
2022-09-15T11:08:47.260Z,12.30
2022-09-15T11:11:36.126Z,7.35
2022-09-15T11:14:32.949Z,4.65
2022-09-15T11:17:39.702Z,5.63
2022-09-15T11:20:40.024Z,9.52
2022-09-15T11:23:33.971Z,6.85
2022-09-15T11:26:12.618Z,13.82
2022-09-15T11:31:41.210Z,5.55
2022-09-15T11:34:15.861Z,8.70
2022-09-15T11:37:07.888Z,4.43
2022-09-15T11:39:48.817Z,10.52
2022-09-15T11:42:33.047Z,5.43
2022-09-15T11:45:03.252Z,7.22
2022-09-15T11:47:31.759Z,6.28
2022-09-15T11:50:10.676Z,4.65
2022-09-15T11:52:50.724Z,4.15
2022-09-15T11:55:38.364Z,9.77
2022-09-15T11:58:18.440Z,5.07
2022-09-15T12:00:56.858Z,8.93
2022-09-15T12:03:56.055Z,9.93
2022-09-15T12:07:13.793Z,9.20
2022-09-15T12:09:42.488Z,7.03
2022-09-15T12:12:17.230Z,5.03
2022-09-15T12:14:47.523Z,4.32
2022-09-15T12:17:45.214Z,4.88
2022-09-15T12:20:23.411Z,4.97
2022-09-15T12:22:55.621Z,10.02
2022-09-15T12:25:30.511Z,7.85
2022-09-15T12:28:27.192Z,6.35
2022-09-15T12:31:27.142Z,6.70
2022-09-15T12:33:57.995Z,5.25
2022-09-15T12:36:34.525Z,5.50
2022-09-15T12:39:04.814Z,5.28
2022-09-15T12:41:33.316Z,4.63
2022-09-15T12:44:23.980Z,3.28
2022-09-15T12:46:57.249Z,5.65
2022-09-15T12:49:42.161Z,5.75
2022-09-15T12:52:12.843Z,5.25
2022-09-15T12:54:43.179Z,7.35
2022-09-15T12:57:49.842Z,6.47
2022-09-15T13:00:20.639Z,7.63
2022-09-15T13:02:52.777Z,4.88
2022-09-15T13:05:39.344Z,3.95
2022-09-15T13:08:31.516Z,6.68
2022-09-15T13:11:08.789Z,6.47
2022-09-15T13:13:43.996Z,4.03
2022-09-15T13:16:29.313Z,4.40
2022-09-15T13:19:26.971Z,4.85
2022-09-15T13:22:06.622Z,6.15
2022-09-15T13:24:59.265Z,3.45
2022-09-15T13:27:47.291Z,3.95
2022-09-15T13:30:24.582Z,4.15
2022-09-15T13:33:04.305Z,4.60
2022-09-15T13:36:09.986Z,4.80
2022-09-15T13:38:47.018Z,5.65
2022-09-15T13:41:33.879Z,5.38
2022-09-15T13:44:17.926Z,6.97
2022-09-15T13:47:06.975Z,4.68
2022-09-15T13:50:01.461Z,2.17
2022-09-15T13:53:07.037Z,5.57
2022-09-15T13:55:38.696Z,4.95
2022-09-15T14:01:05.793Z,4.57
2022-09-15T14:03:42.807Z,4.35
2022-09-15T14:06:14.319Z,2.67
2022-09-15T14:08:44.200Z,6.65
2022-09-15T14:13:46.969Z,1.98
2022-09-15T14:16:27.814Z,3.20
2022-09-15T14:18:58.466Z,7.57
2022-09-15T14:21:32.373Z,3.63
2022-09-15T14:24:06.364Z,3.83
2022-09-15T14:26:44.565Z,2.65
2022-09-15T14:29:24.981Z,4.40
2022-09-15T14:31:53.925Z,5.88
2022-09-15T14:34:24.663Z,5.00
2022-09-15T14:37:07.376Z,2.65
2022-09-15T14:39:37.831Z,3.88
2022-09-15T14:42:32.815Z,5.35
2022-09-15T14:48:16.533Z,7.43
2022-09-15T14:50:46.591Z,3.05
2022-09-15T14:53:20.720Z,1.70
2022-09-15T14:56:22.849Z,6.30
2022-09-15T14:58:55.569Z,5.68
2022-09-15T15:01:32.838Z,6.68
2022-09-15T15:04:32.941Z,2.40
2022-09-15T15:07:04.503Z,5.70
2022-09-15T15:09:37.907Z,2.28
2022-09-15T15:12:13.215Z,3.80
2022-09-15T15:14:42.639Z,5.55
2022-09-15T15:17:24.486Z,6.97
2022-09-15T15:20:02.474Z,6.18
2022-09-15T15:22:30.323Z,4.03
2022-09-15T15:24:58.305Z,2.97
2022-09-15T15:27:35.238Z,3.10
2022-09-15T15:30:26.853Z,3.60
2022-09-15T15:32:55.398Z,4.90
2022-09-15T15:35:23.699Z,8.43
2022-09-15T15:38:02.374Z,5.07
2022-09-15T15:40:31.634Z,4.53
2022-09-15T15:43:07.200Z,9.02
2022-09-15T15:45:47.310Z,5.80
2022-09-15T15:48:15.041Z,3.75
2022-09-15T15:50:42.604Z,3.42
2022-09-15T15:53:10.046Z,5.22
2022-09-15T15:55:40.956Z,4.43
2022-09-15T15:58:13.418Z,5.47
2022-09-15T16:00:52.921Z,5.35
2022-09-15T16:03:21.823Z,4.50
2022-09-15T16:05:54.744Z,3.75
2022-09-15T16:08:34.907Z,3.55
2022-09-15T16:11:03.149Z,3.00
2022-09-15T16:13:31.628Z,6.43
2022-09-15T16:16:01.381Z,5.57
2022-09-15T16:18:29.591Z,5.10
2022-09-15T16:20:57.371Z,6.43
2022-09-15T16:23:25.112Z,5.63
2022-09-15T16:25:59.003Z,6.13
2022-09-15T16:28:26.611Z,4.50
2022-09-15T16:30:54.269Z,4.00
2022-09-15T16:33:21.878Z,2.92
2022-09-15T16:35:51.400Z,3.85
2022-09-15T16:38:20.514Z,2.47
2022-09-15T16:40:49.395Z,1.75
2022-09-15T16:43:19.734Z,4.65
2022-09-15T16:45:48.419Z,6.70
2022-09-15T16:48:16.188Z,2.55
2022-09-15T16:51:02.188Z,5.63
2022-09-15T16:53:32.879Z,5.25
2022-09-15T16:56:00.542Z,3.50
2022-09-15T16:58:28.543Z,7.93
2022-09-15T17:00:57.163Z,3.38
2022-09-15T17:03:26.735Z,2.13
2022-09-15T17:05:57.509Z,4.55
2022-09-15T17:08:29.352Z,4.75
2022-09-15T17:11:02.946Z,5.25
2022-09-15T17:13:33.042Z,2.78
2022-09-15T17:16:02.376Z,3.60
2022-09-15T17:18:30.666Z,4.22
2022-09-15T17:20:59.188Z,3.60
2022-09-15T17:23:38.061Z,2.92
2022-09-15T17:26:11.143Z,2.40
2022-09-15T17:28:39.557Z,2.55
2022-09-15T17:31:18.991Z,7.05
2022-09-15T17:33:47.899Z,7.07
2022-09-15T17:36:15.752Z,3.25
2022-09-15T17:38:45.346Z,3.10
2022-09-15T17:41:17.947Z,1.85
2022-09-15T17:43:45.728Z,1.65
2022-09-15T17:46:13.532Z,3.03
2022-09-15T17:48:41.168Z,3.90
2022-09-15T17:51:14.913Z,2.95
2022-09-15T17:53:43.396Z,1.23
2022-09-15T17:56:11.400Z,4.68
2022-09-15T17:58:39.023Z,1.38
2022-09-15T18:01:06.780Z,4.72
2022-09-15T18:03:37.132Z,1.90
2022-09-15T18:06:07.615Z,3.15
2022-09-15T18:08:36.348Z,4.07
2022-09-15T18:11:06.021Z,6.18
2022-09-15T18:13:34.104Z,3.78
2022-09-15T18:16:06.792Z,4.20
2022-09-15T18:18:34.690Z,5.55
2022-09-15T18:21:23.688Z,3.83
2022-09-15T18:23:51.512Z,3.78
2022-09-15T18:26:23.927Z,3.92
2022-09-15T18:28:54.428Z,4.43
2022-09-15T18:31:22.441Z,2.85
2022-09-15T18:33:49.987Z,2.47
2022-09-15T18:36:17.738Z,4.00
2022-09-15T18:38:45.239Z,3.05
2022-09-15T18:41:13.046Z,2.42
2022-09-15T18:43:40.529Z,2.22
2022-09-15T18:46:08.103Z,2.53
2022-09-15T18:48:35.908Z,5.40
2022-09-15T18:51:08.558Z,7.28
2022-09-15T18:53:38.102Z,4.15
2022-09-15T18:56:13.261Z,3.97
2022-09-15T18:58:41.269Z,3.15
2022-09-15T19:01:09.136Z,4.30
2022-09-15T19:03:37.885Z,6.13
2022-09-15T19:06:07.168Z,2.30
2022-09-15T19:08:37.240Z,7.70
2022-09-15T19:11:05.268Z,2.65
2022-09-15T19:13:33.039Z,4.28
2022-09-15T19:16:05.671Z,3.80
2022-09-15T19:18:34.078Z,8.23
2022-09-15T19:21:10.599Z,11.32
2022-09-15T19:26:09.319Z,7.60
2022-09-15T19:28:36.870Z,4.28
2022-09-15T19:31:05.181Z,4.82
2022-09-15T19:33:33.033Z,4.63
2022-09-15T19:36:26.898Z,4.35
2022-09-15T19:38:53.197Z,2.80
2022-09-15T19:41:20.880Z,3.40
2022-09-15T19:43:48.306Z,4.93
2022-09-15T19:46:18.390Z,3.55
2022-09-15T19:51:17.598Z,3.92
2022-09-15T19:53:45.572Z,5.22
2022-09-15T19:56:18.878Z,8.48
2022-09-15T19:58:46.477Z,7.72
2022-09-15T20:01:14.756Z,4.20
2022-09-15T20:06:32.132Z,2.75
2022-09-15T20:09:00.561Z,6.32
2022-09-15T20:11:29.728Z,3.72
2022-09-15T20:13:57.851Z,4.82
2022-09-15T20:16:25.927Z,4.45
2022-09-15T20:18:54.883Z,4.63
2022-09-15T20:21:51.346Z,6.25
2022-09-15T20:24:20.873Z,2.20
2022-09-15T20:26:48.766Z,4.78
2022-09-15T20:29:16.471Z,3.08
2022-09-15T20:31:44.143Z,3.22
2022-09-15T20:34:11.867Z,6.30
2022-09-15T20:36:40.162Z,5.40
2022-09-15T20:39:13.217Z,4.00
2022-09-15T20:41:45.178Z,4.90
2022-09-15T20:44:13.325Z,5.35
2022-09-15T20:46:40.881Z,2.35
2022-09-15T20:49:09.377Z,7.32
2022-09-15T20:51:37.046Z,7.80
2022-09-15T20:54:05.209Z,5.93
2022-09-15T20:56:35.287Z,5.03
2022-09-15T21:01:37.577Z,4.10
2022-09-15T21:04:07.732Z,4.60
2022-09-15T21:09:04.936Z,4.28
2022-09-15T21:11:33.315Z,3.60
2022-09-15T21:14:01.534Z,2.58
2022-09-15T21:16:29.914Z,5.70
2022-09-15T21:18:58.621Z,6.25
2022-09-15T21:21:31.883Z,3.47
2022-09-15T21:24:03.769Z,4.90
2022-09-15T21:26:58.226Z,1.90
2022-09-15T21:29:27.831Z,2.45
2022-09-15T21:31:58.611Z,3.25
2022-09-15T21:34:26.507Z,4.05
2022-09-15T21:36:54.212Z,9.60
2022-09-15T21:39:21.758Z,5.28
2022-09-15T21:41:50.051Z,2.15
2022-09-15T21:44:17.780Z,4.20
2022-09-15T21:46:47.102Z,8.43
2022-09-15T21:49:15.017Z,1.80
2022-09-15T21:51:42.662Z,3.25
2022-09-15T21:54:10.380Z,5.78
2022-09-15T21:56:38.335Z,2.05
2022-09-15T21:59:08.971Z,3.78
2022-09-15T22:01:37.390Z,5.40
2022-09-15T22:04:07.330Z,2.50
2022-09-15T22:06:40.117Z,3.97
2022-09-15T22:09:26.717Z,7.38
2022-09-15T22:12:10.391Z,5.88
2022-09-15T22:14:38.646Z,5.22
2022-09-15T22:17:06.072Z,3.10
2022-09-15T22:19:34.096Z,3.38
2022-09-15T22:22:02.609Z,3.42
2022-09-15T22:24:30.462Z,2.42
2022-09-15T22:26:58.152Z,4.10
2022-09-15T22:29:26.083Z,3.15
2022-09-15T22:31:53.691Z,5.43
2022-09-15T22:34:21.555Z,2.08
2022-09-15T22:36:49.464Z,5.03
2022-09-15T22:39:17.570Z,4.65
2022-09-15T22:41:45.162Z,5.80
2022-09-15T22:44:19.371Z,6.55
2022-09-15T22:46:47.493Z,5.20
2022-09-15T22:49:15.581Z,4.63
2022-09-15T22:51:43.346Z,2.95
2022-09-15T22:54:11.202Z,2.60
2022-09-15T22:56:38.731Z,3.55
2022-09-15T22:59:06.589Z,2.90
2022-09-15T23:01:34.201Z,3.13
2022-09-15T23:04:03.881Z,3.83
2022-09-15T23:06:35.180Z,5.25
2022-09-15T23:09:06.887Z,3.53
2022-09-15T23:11:36.019Z,4.05
2022-09-15T23:14:04.443Z,2.95
2022-09-15T23:16:32.487Z,3.83
2022-09-15T23:19:00.630Z,3.55
2022-09-15T23:21:28.892Z,2.83
2022-09-15T23:23:56.498Z,5.55
2022-09-15T23:26:25.183Z,3.53
2022-09-15T23:28:54.122Z,3.92
2022-09-15T23:31:22.202Z,5.93
2022-09-15T23:33:50.056Z,4.85
2022-09-15T23:36:22.298Z,5.45
2022-09-15T23:38:50.769Z,4.65
2022-09-15T23:41:19.196Z,3.20
2022-09-15T23:43:47.161Z,5.90
2022-09-15T23:46:14.849Z,6.80
2022-09-15T23:48:42.710Z,5.30
2022-09-15T23:51:10.646Z,10.98
2022-09-15T23:53:38.757Z,4.25
2022-09-15T23:56:06.805Z,3.10
2022-09-15T23:58:34.663Z,4.88
